Anzahl Datensätze: 48
min. Temperatur: 13.2 °C
max. Temperatur: 26.3 °C
max. Windgeschwindigkeit: 6.5 km/h
Niederschlagsumme: 0.0 mm
| Datum |
Zeit |
Temp °C |
Feuchte % |
Taupunkt °C |
Luftdruck hPa |
Wind km/h |
Windrichtung |
Strahlung w/m² |
Niederschlag mm |
|---|---|---|---|---|---|---|---|---|---|
| 18.07.2024 | 00:00 | 17.3 | 85 | 14.8 | 1023.3 | 0.0 | NNO | 0 | 0.0 |
| 18.07.2024 | 00:30 | 16.7 | 87 | 14.5 | 1023.4 | 0.0 | NNO | 0 | 0.0 |
| 18.07.2024 | 01:00 | 16.3 | 87 | 14.1 | 1023.5 | 0.0 | NNO | 0 | 0.0 |
| 18.07.2024 | 01:30 | 15.8 | 88 | 13.8 | 1023.4 | 0.0 | NNO | 0 | 0.0 |
| 18.07.2024 | 02:00 | 15.3 | 89 | 13.5 | 1023.1 | 0.0 | NNO | 0 | 0.0 |
| 18.07.2024 | 02:30 | 15.1 | 90 | 13.5 | 1023.0 | 0.0 | NNO | 0 | 0.0 |
| 18.07.2024 | 03:00 | 14.6 | 90 | 13.0 | 1023.1 | 0.0 | NNO | 0 | 0.0 |
| 18.07.2024 | 03:30 | 14.0 | 91 | 12.6 | 1023.3 | 0.0 | NNO | 0 | 0.0 |
| 18.07.2024 | 04:00 | 13.6 | 91 | 12.2 | 1023.0 | 0.0 | NNO | 0 | 0.0 |
| 18.07.2024 | 04:30 | 13.6 | 91 | 12.2 | 1023.1 | 0.0 | NNO | 0 | 0.0 |
| 18.07.2024 | 05:00 | 13.2 | 91 | 11.8 | 1023.1 | 0.0 | NNO | 0 | 0.0 |
| 18.07.2024 | 05:30 | 13.3 | 92 | 12.0 | 1023.2 | 0.0 | NNO | 0 | 0.0 |
| 18.07.2024 | 06:00 | 13.2 | 91 | 11.8 | 1023.2 | 0.0 | NNO | 5 | 0.0 |
| 18.07.2024 | 06:30 | 13.3 | 92 | 12.0 | 1023.3 | 0.0 | NNO | 21 | 0.0 |
| 18.07.2024 | 07:00 | 13.6 | 92 | 12.3 | 1023.4 | 0.0 | NNO | 30 | 0.0 |
| 18.07.2024 | 07:30 | 13.8 | 93 | 12.7 | 1023.4 | 0.0 | NNO | 40 | 0.0 |
| 18.07.2024 | 08:00 | 14.6 | 93 | 13.5 | 1023.8 | 0.0 | NNO | 135 | 0.0 |
| 18.07.2024 | 08:30 | 16.3 | 89 | 14.5 | 1023.7 | 0.0 | NNO | 366 | 0.0 |
| 18.07.2024 | 09:00 | 18.6 | 82 | 15.5 | 1023.8 | 0.0 | NNO | 431 | 0.0 |
| 18.07.2024 | 09:30 | 18.9 | 83 | 15.9 | 1023.6 | 0.0 | NNO | 578 | 0.0 |
| 18.07.2024 | 10:00 | 21.1 | 77 | 16.9 | 1023.5 | 0.0 | NO | 703 | 0.0 |
| 18.07.2024 | 10:30 | 23.1 | 69 | 17.1 | 1023.3 | 0.0 | ONO | 893 | 0.0 |
| 18.07.2024 | 11:00 | 23.4 | 67 | 16.9 | 1023.1 | 0.0 | O | 819 | 0.0 |
| 18.07.2024 | 11:30 | 23.6 | 63 | 16.1 | 1023.0 | 0.0 | OSO | 889 | 0.0 |
| 18.07.2024 | 12:00 | 23.9 | 62 | 16.2 | 1023.0 | 0.0 | SO | 404 | 0.0 |
| 18.07.2024 | 12:30 | 24.3 | 60 | 16.0 | 1022.7 | 0.0 | NNO | 986 | 0.0 |
| 18.07.2024 | 13:00 | 25.1 | 57 | 16.0 | 1022.5 | 0.0 | ONO | 979 | 0.0 |
| 18.07.2024 | 13:30 | 24.9 | 61 | 16.9 | 1022.5 | 0.0 | ONO | 962 | 0.0 |
| 18.07.2024 | 14:00 | 25.2 | 59 | 16.6 | 1022.4 | 0.0 | O | 686 | 0.0 |
| 18.07.2024 | 14:30 | 25.1 | 57 | 16.0 | 1022.4 | 0.0 | SO | 923 | 0.0 |
| 18.07.2024 | 15:00 | 25.8 | 57 | 16.6 | 1022.0 | 0.0 | O | 916 | 0.0 |
| 18.07.2024 | 15:30 | 25.7 | 56 | 16.3 | 1022.1 | 0.0 | SO | 483 | 0.0 |
| 18.07.2024 | 16:00 | 25.9 | 57 | 16.7 | 1022.0 | 0.0 | ONO | 396 | 0.0 |
| 18.07.2024 | 16:30 | 26.1 | 54 | 16.1 | 1021.8 | 0.0 | OSO | 301 | 0.0 |
| 18.07.2024 | 17:00 | 26.0 | 60 | 17.6 | 1021.6 | 0.0 | O | 121 | 0.0 |
| 18.07.2024 | 17:30 | 26.2 | 55 | 16.4 | 1021.5 | 0.0 | O | 109 | 0.0 |
| 18.07.2024 | 18:00 | 25.9 | 56 | 16.4 | 1021.4 | 0.0 | O | 69 | 0.0 |
| 18.07.2024 | 18:30 | 26.1 | 55 | 16.4 | 1021.3 | 0.0 | O | 72 | 0.0 |
| 18.07.2024 | 19:00 | 26.3 | 56 | 16.8 | 1021.3 | 0.0 | SO | 46 | 0.0 |
| 18.07.2024 | 19:30 | 26.0 | 57 | 16.8 | 1021.1 | 0.0 | SO | 37 | 0.0 |
| 18.07.2024 | 20:00 | 25.8 | 63 | 18.2 | 1021.2 | 0.0 | SSO | 35 | 0.0 |
| 18.07.2024 | 20:30 | 25.1 | 69 | 19.0 | 1021.4 | 0.0 | SSO | 16 | 0.0 |
| 18.07.2024 | 21:00 | 23.4 | 74 | 18.5 | 1021.4 | 0.0 | SSO | 7 | 0.0 |
| 18.07.2024 | 21:30 | 22.4 | 77 | 18.2 | 1021.6 | 0.0 | SSO | 0 | 0.0 |
| 18.07.2024 | 22:00 | 21.3 | 80 | 17.7 | 1021.9 | 0.0 | SSO | 0 | 0.0 |
| 18.07.2024 | 22:30 | 20.5 | 82 | 17.3 | 1022.0 | 0.0 | SSO | 0 | 0.0 |
| 18.07.2024 | 23:00 | 20.0 | 83 | 17.0 | 1022.0 | 0.0 | SSO | 0 | 0.0 |
| 18.07.2024 | 23:30 | 19.6 | 84 | 16.8 | 1021.9 | 0.0 | SSO | 0 | 0.0 |